sensor_id;sensor_type;location;lat;lon;timestamp;pressure;altitude;pressure_sealevel;temperature;humidity
54546;BME280;40444;45.184;9.850;2023-10-13T17:52:25;101215.69;;;21.04;100.00
54546;BME280;40444;45.184;9.850;2023-10-13T17:54:55;101206.47;;;21.05;100.00
54546;BME280;40444;45.184;9.850;2023-10-13T17:57:23;101207.13;;;21.07;100.00
54546;BME280;40444;45.184;9.850;2023-10-13T17:59:52;101203.38;;;21.08;100.00
54546;BME280;40444;45.184;9.850;2023-10-13T18:02:23;101203.19;;;21.10;100.00
54546;BME280;40444;45.184;9.850;2023-10-13T18:04:52;101199.88;;;21.14;100.00
54546;BME280;40444;45.184;9.850;2023-10-13T18:07:21;101195.94;;;21.17;100.00
54546;BME280;40444;45.184;9.850;2023-10-13T18:09:51;101210.19;;;21.19;100.00
54546;BME280;40444;45.184;9.850;2023-10-13T18:12:20;101201.19;;;21.18;100.00
54546;BME280;40444;45.184;9.850;2023-10-13T18:14:50;101201.81;;;21.20;100.00
54546;BME280;40444;45.184;9.850;2023-10-13T18:17:24;101202.69;;;21.21;100.00
54546;BME280;40444;45.184;9.850;2023-10-13T18:19:55;101205.22;;;21.23;100.00
54546;BME280;40444;45.184;9.850;2023-10-13T18:22:26;101198.25;;;21.20;100.00
54546;BME280;40444;45.184;9.850;2023-10-13T18:24:56;101196.78;;;21.17;100.00
54546;BME280;40444;45.184;9.850;2023-10-13T18:27:25;101191.50;;;21.16;100.00
54546;BME280;40444;45.184;9.850;2023-10-13T18:29:55;101200.53;;;21.16;100.00
54546;BME280;40444;45.184;9.850;2023-10-13T18:32:24;101199.59;;;21.09;100.00
54546;BME280;40444;45.184;9.850;2023-10-13T18:34:55;101200.81;;;21.07;100.00
54546;BME280;40444;45.184;9.850;2023-10-13T18:37:24;101204.78;;;21.04;100.00
54546;BME280;40444;45.184;9.850;2023-10-13T18:39:53;101206.00;;;21.02;100.00
54546;BME280;40444;45.184;9.850;2023-10-13T18:42:22;101202.44;;;21.01;100.00
54546;BME280;40444;45.184;9.850;2023-10-13T18:44:51;101200.75;;;21.00;100.00
54546;BME280;40444;45.184;9.850;2023-10-13T18:47:24;101201.81;;;20.99;100.00
54546;BME280;40444;45.184;9.850;2023-10-13T18:49:53;101202.19;;;20.96;100.00
54546;BME280;40444;45.184;9.850;2023-10-13T18:52:23;101200.50;;;20.95;100.00
54546;BME280;40444;45.184;9.850;2023-10-13T18:54:52;101195.41;;;20.92;100.00
54546;BME280;40444;45.184;9.850;2023-10-13T18:57:22;101194.94;;;20.88;100.00
54546;BME280;40444;45.184;9.850;2023-10-13T18:59:51;101197.88;;;20.87;100.00
54546;BME280;40444;45.184;9.850;2023-10-13T19:02:20;101203.31;;;20.87;100.00
54546;BME280;40444;45.184;9.850;2023-10-13T19:04:49;101195.72;;;20.82;100.00
54546;BME280;40444;45.184;9.850;2023-10-13T19:07:17;101202.28;;;20.88;100.00
54546;BME280;40444;45.184;9.850;2023-10-13T19:09:46;101200.78;;;20.85;100.00
54546;BME280;40444;45.184;9.850;2023-10-13T19:12:14;101204.94;;;20.81;100.00
54546;BME280;40444;45.184;9.850;2023-10-13T19:14:43;101202.38;;;20.80;100.00
54546;BME280;40444;45.184;9.850;2023-10-13T19:17:11;101202.66;;;20.85;100.00
54546;BME280;40444;45.184;9.850;2023-10-13T19:19:47;101202.28;;;20.88;100.00
54546;BME280;40444;45.184;9.850;2023-10-13T19:22:16;101203.97;;;20.89;100.00
54546;BME280;40444;45.184;9.850;2023-10-13T19:24:46;101215.91;;;20.88;100.00
54546;BME280;40444;45.184;9.850;2023-10-13T19:27:15;101212.69;;;20.84;100.00
54546;BME280;40444;45.184;9.850;2023-10-13T19:29:44;101209.97;;;20.84;100.00
54546;BME280;40444;45.184;9.850;2023-10-13T19:32:13;101206.63;;;20.82;100.00
54546;BME280;40444;45.184;9.850;2023-10-13T19:34:41;101206.81;;;20.81;100.00
54546;BME280;40444;45.184;9.850;2023-10-13T19:37:10;101206.97;;;20.79;100.00
54546;BME280;40444;45.184;9.850;2023-10-13T19:39:41;101211.59;;;20.79;100.00
54546;BME280;40444;45.184;9.850;2023-10-13T19:42:10;101213.09;;;20.81;100.00
54546;BME280;40444;45.184;9.850;2023-10-13T19:44:39;101216.84;;;20.80;100.00
54546;BME280;40444;45.184;9.850;2023-10-13T19:47:11;101209.72;;;20.79;100.00
54546;BME280;40444;45.184;9.850;2023-10-13T19:49:42;101210.09;;;20.76;100.00
54546;BME280;40444;45.184;9.850;2023-10-13T19:52:13;101217.41;;;20.76;100.00
54546;BME280;40444;45.184;9.850;2023-10-13T19:54:45;101212.34;;;20.73;100.00
54546;BME280;40444;45.184;9.850;2023-10-13T19:57:14;101218.53;;;20.66;100.00
54546;BME280;40444;45.184;9.850;2023-10-13T19:59:42;101213.09;;;20.66;100.00
54546;BME280;40444;45.184;9.850;2023-10-13T20:02:11;101205.97;;;20.65;100.00
54546;BME280;40444;45.184;9.850;2023-10-13T20:04:41;101217.22;;;20.62;100.00
54546;BME280;40444;45.184;9.850;2023-10-13T20:07:10;101210.94;;;20.62;100.00
54546;BME280;40444;45.184;9.850;2023-10-13T20:09:40;101215.06;;;20.58;100.00
54546;BME280;40444;45.184;9.850;2023-10-13T20:12:10;101212.34;;;20.58;100.00
54546;BME280;40444;45.184;9.850;2023-10-13T20:14:39;101215.47;;;20.55;100.00
54546;BME280;40444;45.184;9.850;2023-10-13T20:17:10;101206.63;;;20.53;100.00
54546;BME280;40444;45.184;9.850;2023-10-13T20:19:42;101206.06;;;20.57;100.00
54546;BME280;40444;45.184;9.850;2023-10-13T20:22:10;101206.81;;;20.51;100.00
54546;BME280;40444;45.184;9.850;2023-10-13T20:24:39;101204.34;;;20.41;100.00
54546;BME280;40444;45.184;9.850;2023-10-13T20:27:10;101203.22;;;20.36;100.00
54546;BME280;40444;45.184;9.850;2023-10-13T20:29:39;101197.13;;;20.34;100.00
54546;BME280;40444;45.184;9.850;2023-10-13T20:32:08;101204.50;;;20.25;100.00
54546;BME280;40444;45.184;9.850;2023-10-13T20:34:38;101201.31;;;20.22;100.00
54546;BME280;40444;45.184;9.850;2023-10-13T20:37:07;101202.91;;;20.16;100.00
54546;BME280;40444;45.184;9.850;2023-10-13T20:39:35;101198.03;;;20.11;100.00
54546;BME280;40444;45.184;9.850;2023-10-13T20:42:04;101206.75;;;20.07;100.00
54546;BME280;40444;45.184;9.850;2023-10-13T20:44:33;101210.38;;;19.99;100.00
54546;BME280;40444;45.184;9.850;2023-10-13T20:47:08;101204.84;;;19.92;100.00
54546;BME280;40444;45.184;9.850;2023-10-13T20:49:39;101209.50;;;19.84;100.00
54546;BME280;40444;45.184;9.850;2023-10-13T20:52:08;101212.59;;;19.81;100.00
54546;BME280;40444;45.184;9.850;2023-10-13T20:54:37;101213.81;;;19.78;100.00
54546;BME280;40444;45.184;9.850;2023-10-13T20:57:06;101214.81;;;19.77;100.00
54546;BME280;40444;45.184;9.850;2023-10-13T20:59:38;101213.31;;;19.75;100.00
54546;BME280;40444;45.184;9.850;2023-10-13T21:02:07;101201.78;;;19.73;100.00
54546;BME280;40444;45.184;9.850;2023-10-13T21:04:37;101207.22;;;19.73;100.00
54546;BME280;40444;45.184;9.850;2023-10-13T21:07:06;101207.06;;;19.74;100.00
54546;BME280;40444;45.184;9.850;2023-10-13T21:09:35;101199.25;;;19.71;100.00
54546;BME280;40444;45.184;9.850;2023-10-13T21:12:04;101204.38;;;19.66;100.00
54546;BME280;40444;45.184;9.850;2023-10-13T21:14:34;101200.66;;;19.59;100.00
54546;BME280;40444;45.184;9.850;2023-10-13T21:17:02;101200.38;;;19.54;100.00
54546;BME280;40444;45.184;9.850;2023-10-13T21:19:32;101203.44;;;19.51;100.00
54546;BME280;40444;45.184;9.850;2023-10-13T21:22:04;101205.16;;;19.52;100.00
54546;BME280;40444;45.184;9.850;2023-10-13T21:24:36;101202.97;;;19.47;100.00
54546;BME280;40444;45.184;9.850;2023-10-13T21:27:04;101202.00;;;19.40;100.00
54546;BME280;40444;45.184;9.850;2023-10-13T21:29:33;101200.84;;;19.34;100.00
54546;BME280;40444;45.184;9.850;2023-10-13T21:32:01;101200.56;;;19.29;100.00
54546;BME280;40444;45.184;9.850;2023-10-13T21:34:29;101204.66;;;19.25;100.00
54546;BME280;40444;45.184;9.850;2023-10-13T21:36:58;101201.63;;;19.20;100.00
54546;BME280;40444;45.184;9.850;2023-10-13T21:39:27;101198.44;;;19.16;100.00
54546;BME280;40444;45.184;9.850;2023-10-13T21:42:14;101201.84;;;19.10;100.00
54546;BME280;40444;45.184;9.850;2023-10-13T21:44:43;101200.16;;;19.09;100.00
54546;BME280;40444;45.184;9.850;2023-10-13T21:47:13;101197.97;;;19.05;100.00
54546;BME280;40444;45.184;9.850;2023-10-13T21:49:41;101202.91;;;19.01;100.00
54546;BME280;40444;45.184;9.850;2023-10-13T21:52:14;101203.28;;;18.98;100.00
54546;BME280;40444;45.184;9.850;2023-10-13T21:54:44;101194.44;;;18.96;100.00
54546;BME280;40444;45.184;9.850;2023-10-13T21:57:12;101190.06;;;18.95;100.00
54546;BME280;40444;45.184;9.850;2023-10-13T21:59:41;101187.19;;;18.88;100.00
54546;BME280;40444;45.184;9.850;2023-10-13T22:02:11;101186.88;;;18.83;100.00
54546;BME280;40444;45.184;9.850;2023-10-13T22:04:39;101186.53;;;18.86;100.00
54546;BME280;40444;45.184;9.850;2023-10-13T22:07:08;101186.53;;;18.86;100.00
54546;BME280;40444;45.184;9.850;2023-10-13T22:09:36;101194.03;;;18.84;100.00
54546;BME280;40444;45.184;9.850;2023-10-13T22:12:05;101189.47;;;18.77;100.00
54546;BME280;40444;45.184;9.850;2023-10-13T22:14:34;101188.63;;;18.76;100.00
54546;BME280;40444;45.184;9.850;2023-10-13T22:17:02;101182.69;;;18.73;100.00
54546;BME280;40444;45.184;9.850;2023-10-13T22:19:32;101188.47;;;18.69;100.00
54546;BME280;40444;45.184;9.850;2023-10-13T22:22:00;101191.53;;;18.66;100.00
54546;BME280;40444;45.184;9.850;2023-10-13T22:24:29;101187.09;;;18.65;100.00
54546;BME280;40444;45.184;9.850;2023-10-13T22:26:57;101183.72;;;18.63;100.00
54546;BME280;40444;45.184;9.850;2023-10-13T22:29:25;101185.41;;;18.64;100.00
54546;BME280;40444;45.184;9.850;2023-10-13T22:31:56;101184.56;;;18.64;100.00
54546;BME280;40444;45.184;9.850;2023-10-13T22:34:24;101186.63;;;18.62;100.00
54546;BME280;40444;45.184;9.850;2023-10-13T22:36:54;101189.50;;;18.60;100.00
54546;BME280;40444;45.184;9.850;2023-10-13T22:39:32;101183.56;;;18.57;100.00
54546;BME280;40444;45.184;9.850;2023-10-13T22:42:02;101178.66;;;18.52;100.00
54546;BME280;40444;45.184;9.850;2023-10-13T22:44:35;101172.25;;;18.45;100.00
54546;BME280;40444;45.184;9.850;2023-10-13T22:47:04;101169.22;;;18.40;100.00
54546;BME280;40444;45.184;9.850;2023-10-13T22:49:33;101172.47;;;18.35;100.00
54546;BME280;40444;45.184;9.850;2023-10-13T22:52:01;101163.31;;;18.36;100.00
54546;BME280;40444;45.184;9.850;2023-10-13T22:54:31;101165.00;;;18.29;100.00
54546;BME280;40444;45.184;9.850;2023-10-13T22:57:05;101160.63;;;18.20;100.00
54546;BME280;40444;45.184;9.850;2023-10-13T22:59:34;101151.84;;;18.18;100.00
54546;BME280;40444;45.184;9.850;2023-10-13T23:02:03;101147.09;;;18.12;100.00
54546;BME280;40444;45.184;9.850;2023-10-13T23:04:32;101149.47;;;18.07;100.00
54546;BME280;40444;45.184;9.850;2023-10-13T23:07:01;101150.31;;;18.07;100.00
54546;BME280;40444;45.184;9.850;2023-10-13T23:09:45;101156.94;;;18.05;100.00
54546;BME280;40444;45.184;9.850;2023-10-13T23:12:17;101155.59;;;18.01;100.00
54546;BME280;40444;45.184;9.850;2023-10-13T23:14:47;101151.84;;;18.02;100.00
54546;BME280;40444;45.184;9.850;2023-10-13T23:17:18;101150.84;;;17.94;100.00
54546;BME280;40444;45.184;9.850;2023-10-13T23:19:48;101151.53;;;17.97;100.00
54546;BME280;40444;45.184;9.850;2023-10-13T23:22:17;101156.63;;;17.91;100.00
54546;BME280;40444;45.184;9.850;2023-10-13T23:24:45;101155.78;;;17.91;100.00
54546;BME280;40444;45.184;9.850;2023-10-13T23:27:13;101153.56;;;17.94;100.00
54546;BME280;40444;45.184;9.850;2023-10-13T23:29:42;101149.34;;;17.92;100.00
54546;BME280;40444;45.184;9.850;2023-10-13T23:32:10;101148.16;;;17.86;100.00
54546;BME280;40444;45.184;9.850;2023-10-13T23:34:40;101150.19;;;17.84;100.00
54546;BME280;40444;45.184;9.850;2023-10-13T23:37:08;101146.97;;;17.81;100.00
54546;BME280;40444;45.184;9.850;2023-10-13T23:39:39;101144.25;;;17.73;100.00
54546;BME280;40444;45.184;9.850;2023-10-13T23:42:07;101138.84;;;17.73;100.00
54546;BME280;40444;45.184;9.850;2023-10-13T23:44:37;101145.09;;;17.73;100.00
54546;BME280;40444;45.184;9.850;2023-10-13T23:47:06;101146.28;;;17.71;100.00
54546;BME280;40444;45.184;9.850;2023-10-13T23:49:38;101151.53;;;17.72;100.00
54546;BME280;40444;45.184;9.850;2023-10-13T23:52:06;101153.22;;;17.73;100.00
54546;BME280;40444;45.184;9.850;2023-10-13T23:54:35;101146.28;;;17.71;100.00
54546;BME280;40444;45.184;9.850;2023-10-13T23:57:07;101145.94;;;17.65;100.00
54546;BME280;40444;45.184;9.850;2023-10-13T23:59:40;101157.97;;;17.63;100.00
